sensor_id;sensor_type;location;lat;lon;timestamp;temperature;humidity
52869;DHT22;39100;53.480;6.158;2022-07-24T00:01:31;16.30;99.90
52869;DHT22;39100;53.480;6.158;2022-07-24T00:03:57;16.30;99.90
52869;DHT22;39100;53.480;6.158;2022-07-24T00:06:22;16.30;99.90
52869;DHT22;39100;53.480;6.158;2022-07-24T00:08:48;16.30;99.90
52869;DHT22;39100;53.480;6.158;2022-07-24T00:11:14;16.30;99.90
52869;DHT22;39100;53.480;6.158;2022-07-24T00:13:40;16.30;99.90
52869;DHT22;39100;53.480;6.158;2022-07-24T00:16:06;16.30;99.90
52869;DHT22;39100;53.480;6.158;2022-07-24T00:18:32;16.30;99.90
52869;DHT22;39100;53.480;6.158;2022-07-24T00:20:57;16.20;99.90
52869;DHT22;39100;53.480;6.158;2022-07-24T00:23:24;16.30;99.90
52869;DHT22;39100;53.480;6.158;2022-07-24T00:25:51;16.20;99.90
52869;DHT22;39100;53.480;6.158;2022-07-24T00:28:16;16.20;99.90
52869;DHT22;39100;53.480;6.158;2022-07-24T00:30:42;16.20;99.90
52869;DHT22;39100;53.480;6.158;2022-07-24T00:33:07;16.20;99.90
52869;DHT22;39100;53.480;6.158;2022-07-24T00:35:33;16.20;99.90
52869;DHT22;39100;53.480;6.158;2022-07-24T00:37:59;16.20;99.90
52869;DHT22;39100;53.480;6.158;2022-07-24T00:40:25;16.20;99.90
52869;DHT22;39100;53.480;6.158;2022-07-24T00:42:51;16.20;99.90
52869;DHT22;39100;53.480;6.158;2022-07-24T00:45:17;16.40;99.90
52869;DHT22;39100;53.480;6.158;2022-07-24T00:47:43;16.20;99.90
52869;DHT22;39100;53.480;6.158;2022-07-24T00:50:08;16.20;99.90
52869;DHT22;39100;53.480;6.158;2022-07-24T00:52:34;16.20;99.90
52869;DHT22;39100;53.480;6.158;2022-07-24T00:55:00;16.20;99.90
52869;DHT22;39100;53.480;6.158;2022-07-24T00:57:26;16.20;99.90
52869;DHT22;39100;53.480;6.158;2022-07-24T00:59:52;16.20;99.90
52869;DHT22;39100;53.480;6.158;2022-07-24T01:02:17;16.20;99.90
52869;DHT22;39100;53.480;6.158;2022-07-24T01:04:43;16.20;99.90
52869;DHT22;39100;53.480;6.158;2022-07-24T01:07:09;16.20;99.90
52869;DHT22;39100;53.480;6.158;2022-07-24T01:09:35;16.40;99.90
52869;DHT22;39100;53.480;6.158;2022-07-24T01:12:01;16.10;99.90
52869;DHT22;39100;53.480;6.158;2022-07-24T01:14:27;16.20;99.90
52869;DHT22;39100;53.480;6.158;2022-07-24T01:16:53;16.60;99.90
52869;DHT22;39100;53.480;6.158;2022-07-24T01:19:18;16.20;99.90
52869;DHT22;39100;53.480;6.158;2022-07-24T01:21:49;16.20;99.90
52869;DHT22;39100;53.480;6.158;2022-07-24T01:24:16;16.20;99.90
52869;DHT22;39100;53.480;6.158;2022-07-24T01:26:41;16.70;99.90
52869;DHT22;39100;53.480;6.158;2022-07-24T01:29:07;16.20;99.90
52869;DHT22;39100;53.480;6.158;2022-07-24T01:31:32;16.30;99.90
52869;DHT22;39100;53.480;6.158;2022-07-24T01:33:58;16.20;99.90
52869;DHT22;39100;53.480;6.158;2022-07-24T01:36:24;16.80;99.90
52869;DHT22;39100;53.480;6.158;2022-07-24T01:38:49;16.20;99.90
52869;DHT22;39100;53.480;6.158;2022-07-24T01:41:15;16.20;99.90
52869;DHT22;39100;53.480;6.158;2022-07-24T01:43:41;16.20;99.90
52869;DHT22;39100;53.480;6.158;2022-07-24T01:46:06;16.20;99.90
52869;DHT22;39100;53.480;6.158;2022-07-24T01:48:32;16.20;99.90
52869;DHT22;39100;53.480;6.158;2022-07-24T01:50:58;16.20;99.90
52869;DHT22;39100;53.480;6.158;2022-07-24T01:53:23;16.20;99.90
52869;DHT22;39100;53.480;6.158;2022-07-24T01:55:50;16.20;99.90
52869;DHT22;39100;53.480;6.158;2022-07-24T01:58:16;16.20;99.90
52869;DHT22;39100;53.480;6.158;2022-07-24T02:00:42;16.20;99.90
52869;DHT22;39100;53.480;6.158;2022-07-24T02:03:08;16.20;99.90
52869;DHT22;39100;53.480;6.158;2022-07-24T02:05:33;16.30;99.90
52869;DHT22;39100;53.480;6.158;2022-07-24T02:08:00;16.60;99.90
52869;DHT22;39100;53.480;6.158;2022-07-24T02:10:26;16.20;99.90
52869;DHT22;39100;53.480;6.158;2022-07-24T02:12:52;16.50;99.90
52869;DHT22;39100;53.480;6.158;2022-07-24T02:15:18;16.20;99.90
52869;DHT22;39100;53.480;6.158;2022-07-24T02:17:48;16.20;99.90
52869;DHT22;39100;53.480;6.158;2022-07-24T02:20:13;16.20;99.90
52869;DHT22;39100;53.480;6.158;2022-07-24T02:22:39;16.30;99.90
52869;DHT22;39100;53.480;6.158;2022-07-24T02:25:05;16.20;99.90
52869;DHT22;39100;53.480;6.158;2022-07-24T02:27:31;16.30;99.90
52869;DHT22;39100;53.480;6.158;2022-07-24T02:29:57;16.80;99.90
52869;DHT22;39100;53.480;6.158;2022-07-24T02:32:22;16.30;99.90
52869;DHT22;39100;53.480;6.158;2022-07-24T02:34:48;16.30;99.90
52869;DHT22;39100;53.480;6.158;2022-07-24T02:37:13;16.30;99.90
52869;DHT22;39100;53.480;6.158;2022-07-24T02:39:39;16.30;99.90
52869;DHT22;39100;53.480;6.158;2022-07-24T02:42:05;16.60;99.90
52869;DHT22;39100;53.480;6.158;2022-07-24T02:44:30;16.30;99.90
52869;DHT22;39100;53.480;6.158;2022-07-24T02:46:56;16.30;99.90
52869;DHT22;39100;53.480;6.158;2022-07-24T02:49:21;16.30;99.90
52869;DHT22;39100;53.480;6.158;2022-07-24T02:51:47;16.30;99.90
52869;DHT22;39100;53.480;6.158;2022-07-24T02:54:12;16.30;99.90
52869;DHT22;39100;53.480;6.158;2022-07-24T02:56:38;16.30;99.90
52869;DHT22;39100;53.480;6.158;2022-07-24T02:59:04;16.30;99.90
52869;DHT22;39100;53.480;6.158;2022-07-24T03:01:29;16.30;99.90
52869;DHT22;39100;53.480;6.158;2022-07-24T03:03:55;16.30;99.90
52869;DHT22;39100;53.480;6.158;2022-07-24T03:06:20;16.30;99.90
52869;DHT22;39100;53.480;6.158;2022-07-24T03:08:46;16.30;99.90
52869;DHT22;39100;53.480;6.158;2022-07-24T03:11:11;16.20;99.90
52869;DHT22;39100;53.480;6.158;2022-07-24T03:13:37;16.30;99.90
52869;DHT22;39100;53.480;6.158;2022-07-24T03:16:03;16.30;99.90
52869;DHT22;39100;53.480;6.158;2022-07-24T03:18:28;16.30;99.90
52869;DHT22;39100;53.480;6.158;2022-07-24T03:20:54;16.30;99.90
52869;DHT22;39100;53.480;6.158;2022-07-24T03:23:20;16.30;99.90
52869;DHT22;39100;53.480;6.158;2022-07-24T03:25:45;16.30;99.90
52869;DHT22;39100;53.480;6.158;2022-07-24T03:28:12;16.30;99.90
52869;DHT22;39100;53.480;6.158;2022-07-24T03:30:37;16.40;99.90
52869;DHT22;39100;53.480;6.158;2022-07-24T03:33:03;16.30;99.90
52869;DHT22;39100;53.480;6.158;2022-07-24T03:35:29;16.30;99.90
52869;DHT22;39100;53.480;6.158;2022-07-24T03:37:54;16.30;99.90
52869;DHT22;39100;53.480;6.158;2022-07-24T03:40:20;16.20;99.90
52869;DHT22;39100;53.480;6.158;2022-07-24T03:42:45;16.20;99.90
52869;DHT22;39100;53.480;6.158;2022-07-24T03:45:11;16.20;99.90
52869;DHT22;39100;53.480;6.158;2022-07-24T03:47:36;16.20;99.90
52869;DHT22;39100;53.480;6.158;2022-07-24T03:50:02;16.20;99.90
52869;DHT22;39100;53.480;6.158;2022-07-24T03:52:28;16.20;99.90
52869;DHT22;39100;53.480;6.158;2022-07-24T03:54:54;16.20;99.90
52869;DHT22;39100;53.480;6.158;2022-07-24T03:57:21;16.20;99.90
52869;DHT22;39100;53.480;6.158;2022-07-24T03:59:46;16.50;99.90
52869;DHT22;39100;53.480;6.158;2022-07-24T04:02:12;16.20;99.90
52869;DHT22;39100;53.480;6.158;2022-07-24T04:04:37;16.30;99.90
52869;DHT22;39100;53.480;6.158;2022-07-24T04:07:03;16.30;99.90
52869;DHT22;39100;53.480;6.158;2022-07-24T04:09:28;16.30;99.90
52869;DHT22;39100;53.480;6.158;2022-07-24T04:11:54;16.30;99.90
52869;DHT22;39100;53.480;6.158;2022-07-24T04:14:20;16.30;99.90
52869;DHT22;39100;53.480;6.158;2022-07-24T04:16:45;16.30;99.90
52869;DHT22;39100;53.480;6.158;2022-07-24T04:19:12;16.30;99.90
52869;DHT22;39100;53.480;6.158;2022-07-24T04:21:38;16.30;99.90
52869;DHT22;39100;53.480;6.158;2022-07-24T04:24:03;16.30;99.90
52869;DHT22;39100;53.480;6.158;2022-07-24T04:26:29;16.30;99.90
52869;DHT22;39100;53.480;6.158;2022-07-24T04:28:55;16.30;99.90
52869;DHT22;39100;53.480;6.158;2022-07-24T04:31:20;16.30;99.90
52869;DHT22;39100;53.480;6.158;2022-07-24T04:33:46;16.30;99.90
52869;DHT22;39100;53.480;6.158;2022-07-24T04:36:12;16.30;99.90
52869;DHT22;39100;53.480;6.158;2022-07-24T04:38:37;16.30;99.90
52869;DHT22;39100;53.480;6.158;2022-07-24T04:41:03;16.30;99.90
52869;DHT22;39100;53.480;6.158;2022-07-24T04:43:29;16.40;99.90
52869;DHT22;39100;53.480;6.158;2022-07-24T04:45:54;17.00;99.90
52869;DHT22;39100;53.480;6.158;2022-07-24T04:48:20;16.40;99.90
52869;DHT22;39100;53.480;6.158;2022-07-24T04:50:46;16.40;99.90
52869;DHT22;39100;53.480;6.158;2022-07-24T04:53:11;16.50;99.90
52869;DHT22;39100;53.480;6.158;2022-07-24T04:55:37;17.00;99.90
52869;DHT22;39100;53.480;6.158;2022-07-24T04:58:03;16.60;99.90
52869;DHT22;39100;53.480;6.158;2022-07-24T05:00:28;16.60;99.90
52869;DHT22;39100;53.480;6.158;2022-07-24T05:02:54;16.70;99.90
52869;DHT22;39100;53.480;6.158;2022-07-24T05:05:20;16.80;99.90
52869;DHT22;39100;53.480;6.158;2022-07-24T05:07:45;16.90;99.90
52869;DHT22;39100;53.480;6.158;2022-07-24T05:10:11;16.90;99.90
52869;DHT22;39100;53.480;6.158;2022-07-24T05:12:37;17.00;99.90
52869;DHT22;39100;53.480;6.158;2022-07-24T05:15:04;17.10;99.90
52869;DHT22;39100;53.480;6.158;2022-07-24T05:17:30;17.20;99.90
52869;DHT22;39100;53.480;6.158;2022-07-24T05:19:55;17.20;99.90
52869;DHT22;39100;53.480;6.158;2022-07-24T05:22:21;17.60;99.90
52869;DHT22;39100;53.480;6.158;2022-07-24T05:24:46;17.40;99.90
52869;DHT22;39100;53.480;6.158;2022-07-24T05:27:12;17.50;99.90
52869;DHT22;39100;53.480;6.158;2022-07-24T05:29:38;17.70;99.90
52869;DHT22;39100;53.480;6.158;2022-07-24T05:32:04;18.00;99.90
52869;DHT22;39100;53.480;6.158;2022-07-24T05:34:30;17.90;99.90
52869;DHT22;39100;53.480;6.158;2022-07-24T05:36:55;18.20;99.90
52869;DHT22;39100;53.480;6.158;2022-07-24T05:39:21;18.50;99.90
52869;DHT22;39100;53.480;6.158;2022-07-24T05:41:46;18.30;99.90
52869;DHT22;39100;53.480;6.158;2022-07-24T05:44:12;18.40;99.90
52869;DHT22;39100;53.480;6.158;2022-07-24T05:46:37;18.60;99.90
52869;DHT22;39100;53.480;6.158;2022-07-24T05:49:03;19.00;99.90
52869;DHT22;39100;53.480;6.158;2022-07-24T05:51:28;18.90;99.90
52869;DHT22;39100;53.480;6.158;2022-07-24T05:53:55;19.10;99.90
52869;DHT22;39100;53.480;6.158;2022-07-24T05:56:20;19.20;99.90
52869;DHT22;39100;53.480;6.158;2022-07-24T05:58:46;19.30;99.90
52869;DHT22;39100;53.480;6.158;2022-07-24T06:01:11;19.70;99.90
52869;DHT22;39100;53.480;6.158;2022-07-24T06:03:37;19.00;99.90
52869;DHT22;39100;53.480;6.158;2022-07-24T06:06:04;19.60;99.90
52869;DHT22;39100;53.480;6.158;2022-07-24T06:08:30;18.70;99.90
52869;DHT22;39100;53.480;6.158;2022-07-24T06:10:55;18.50;99.90
52869;DHT22;39100;53.480;6.158;2022-07-24T06:13:21;18.40;99.90
52869;DHT22;39100;53.480;6.158;2022-07-24T06:15:47;18.50;99.90
52869;DHT22;39100;53.480;6.158;2022-07-24T06:18:12;19.20;99.90
52869;DHT22;39100;53.480;6.158;2022-07-24T06:20:38;19.10;99.90
52869;DHT22;39100;53.480;6.158;2022-07-24T06:23:04;19.30;99.90
52869;DHT22;39100;53.480;6.158;2022-07-24T06:25:30;19.60;99.90
52869;DHT22;39100;53.480;6.158;2022-07-24T06:27:55;19.90;99.90
52869;DHT22;39100;53.480;6.158;2022-07-24T06:30:24;20.10;99.90
52869;DHT22;39100;53.480;6.158;2022-07-24T06:32:53;20.30;99.90
52869;DHT22;39100;53.480;6.158;2022-07-24T06:35:19;20.40;99.90
52869;DHT22;39100;53.480;6.158;2022-07-24T06:37:45;20.70;99.90
52869;DHT22;39100;53.480;6.158;2022-07-24T06:40:11;20.90;99.90
52869;DHT22;39100;53.480;6.158;2022-07-24T06:42:36;21.00;99.90
52869;DHT22;39100;53.480;6.158;2022-07-24T06:45:02;21.20;99.90
52869;DHT22;39100;53.480;6.158;2022-07-24T06:47:28;21.30;99.90
52869;DHT22;39100;53.480;6.158;2022-07-24T06:49:54;21.40;99.90
52869;DHT22;39100;53.480;6.158;2022-07-24T06:52:20;22.00;99.90
52869;DHT22;39100;53.480;6.158;2022-07-24T06:54:46;21.90;99.90
52869;DHT22;39100;53.480;6.158;2022-07-24T06:57:11;21.90;99.90
52869;DHT22;39100;53.480;6.158;2022-07-24T06:59:37;21.80;99.90
52869;DHT22;39100;53.480;6.158;2022-07-24T07:02:02;21.70;99.90
52869;DHT22;39100;53.480;6.158;2022-07-24T07:04:28;21.60;99.90
52869;DHT22;39100;53.480;6.158;2022-07-24T07:06:54;21.50;99.90
52869;DHT22;39100;53.480;6.158;2022-07-24T07:09:19;21.60;99.90
52869;DHT22;39100;53.480;6.158;2022-07-24T07:11:46;21.90;99.90
52869;DHT22;39100;53.480;6.158;2022-07-24T07:14:13;22.70;99.90
52869;DHT22;39100;53.480;6.158;2022-07-24T07:16:38;22.00;99.90
52869;DHT22;39100;53.480;6.158;2022-07-24T07:19:04;22.00;99.90
52869;DHT22;39100;53.480;6.158;2022-07-24T07:21:29;22.30;99.90
52869;DHT22;39100;53.480;6.158;2022-07-24T07:23:55;22.00;99.90
52869;DHT22;39100;53.480;6.158;2022-07-24T07:26:20;22.30;99.90
52869;DHT22;39100;53.480;6.158;2022-07-24T07:28:46;22.30;99.90
52869;DHT22;39100;53.480;6.158;2022-07-24T07:31:12;21.60;99.90
52869;DHT22;39100;53.480;6.158;2022-07-24T07:33:37;21.70;99.90
52869;DHT22;39100;53.480;6.158;2022-07-24T07:36:03;21.50;99.90
52869;DHT22;39100;53.480;6.158;2022-07-24T07:38:29;21.30;99.90
52869;DHT22;39100;53.480;6.158;2022-07-24T07:40:54;21.30;99.90
52869;DHT22;39100;53.480;6.158;2022-07-24T07:43:20;21.20;99.90
52869;DHT22;39100;53.480;6.158;2022-07-24T07:45:45;21.10;99.90
52869;DHT22;39100;53.480;6.158;2022-07-24T07:48:11;21.10;99.90
52869;DHT22;39100;53.480;6.158;2022-07-24T07:50:37;21.00;99.90
52869;DHT22;39100;53.480;6.158;2022-07-24T07:53:02;20.90;99.90
52869;DHT22;39100;53.480;6.158;2022-07-24T07:55:28;20.80;99.90
52869;DHT22;39100;53.480;6.158;2022-07-24T07:57:54;20.80;99.90
52869;DHT22;39100;53.480;6.158;2022-07-24T08:00:19;20.70;99.90
52869;DHT22;39100;53.480;6.158;2022-07-24T08:02:45;20.70;99.90
52869;DHT22;39100;53.480;6.158;2022-07-24T08:05:11;20.70;99.90
52869;DHT22;39100;53.480;6.158;2022-07-24T08:07:37;20.70;99.90
52869;DHT22;39100;53.480;6.158;2022-07-24T08:10:06;20.70;99.90
52869;DHT22;39100;53.480;6.158;2022-07-24T08:12:32;20.70;99.90
52869;DHT22;39100;53.480;6.158;2022-07-24T08:14:57;20.70;99.90
52869;DHT22;39100;53.480;6.158;2022-07-24T08:17:23;20.60;99.90
52869;DHT22;39100;53.480;6.158;2022-07-24T08:19:48;20.60;99.90
52869;DHT22;39100;53.480;6.158;2022-07-24T08:22:14;20.50;99.90
52869;DHT22;39100;53.480;6.158;2022-07-24T08:24:40;20.40;99.90
52869;DHT22;39100;53.480;6.158;2022-07-24T08:27:06;20.40;99.90
52869;DHT22;39100;53.480;6.158;2022-07-24T08:29:32;20.50;99.90
52869;DHT22;39100;53.480;6.158;2022-07-24T08:31:57;20.50;99.90
52869;DHT22;39100;53.480;6.158;2022-07-24T08:34:23;20.60;99.90
52869;DHT22;39100;53.480;6.158;2022-07-24T08:36:49;20.70;99.90
52869;DHT22;39100;53.480;6.158;2022-07-24T08:39:15;20.70;99.90
52869;DHT22;39100;53.480;6.158;2022-07-24T08:41:41;20.70;99.90
52869;DHT22;39100;53.480;6.158;2022-07-24T08:44:08;21.00;99.90
52869;DHT22;39100;53.480;6.158;2022-07-24T08:46:37;21.30;99.90
52869;DHT22;39100;53.480;6.158;2022-07-24T08:49:12;21.80;99.90
52869;DHT22;39100;53.480;6.158;2022-07-24T08:51:39;22.00;99.90
52869;DHT22;39100;53.480;6.158;2022-07-24T08:54:06;22.10;99.90
52869;DHT22;39100;53.480;6.158;2022-07-24T08:56:33;22.20;99.90
52869;DHT22;39100;53.480;6.158;2022-07-24T08:58:59;22.40;99.90
52869;DHT22;39100;53.480;6.158;2022-07-24T09:01:25;22.80;99.90
52869;DHT22;39100;53.480;6.158;2022-07-24T09:03:50;23.20;99.90
52869;DHT22;39100;53.480;6.158;2022-07-24T09:06:16;23.30;99.90
52869;DHT22;39100;53.480;6.158;2022-07-24T09:08:56;23.20;99.90
52869;DHT22;39100;53.480;6.158;2022-07-24T09:11:22;23.20;99.90
52869;DHT22;39100;53.480;6.158;2022-07-24T09:13:51;23.30;99.90
52869;DHT22;39100;53.480;6.158;2022-07-24T09:16:35;23.50;99.90
52869;DHT22;39100;53.480;6.158;2022-07-24T09:19:07;23.50;99.90
52869;DHT22;39100;53.480;6.158;2022-07-24T09:21:35;23.40;99.90
52869;DHT22;39100;53.480;6.158;2022-07-24T09:24:15;23.40;99.90
52869;DHT22;39100;53.480;6.158;2022-07-24T09:26:46;23.50;99.90
52869;DHT22;39100;53.480;6.158;2022-07-24T09:29:12;24.00;99.90
52869;DHT22;39100;53.480;6.158;2022-07-24T09:32:01;24.00;99.90
52869;DHT22;39100;53.480;6.158;2022-07-24T09:34:29;24.20;99.90
52869;DHT22;39100;53.480;6.158;2022-07-24T09:37:00;24.40;99.90
52869;DHT22;39100;53.480;6.158;2022-07-24T09:39:27;24.50;99.90
52869;DHT22;39100;53.480;6.158;2022-07-24T09:41:55;24.60;99.90
52869;DHT22;39100;53.480;6.158;2022-07-24T09:44:21;24.70;99.90
52869;DHT22;39100;53.480;6.158;2022-07-24T09:46:56;24.90;99.90
52869;DHT22;39100;53.480;6.158;2022-07-24T09:49:22;25.00;99.90
52869;DHT22;39100;53.480;6.158;2022-07-24T09:52:17;25.20;99.90
52869;DHT22;39100;53.480;6.158;2022-07-24T09:54:48;25.40;99.90
52869;DHT22;39100;53.480;6.158;2022-07-24T09:57:25;25.40;99.90
52869;DHT22;39100;53.480;6.158;2022-07-24T10:00:01;25.50;99.90
52869;DHT22;39100;53.480;6.158;2022-07-24T10:02:28;25.80;99.90
52869;DHT22;39100;53.480;6.158;2022-07-24T10:04:56;25.80;99.90
52869;DHT22;39100;53.480;6.158;2022-07-24T10:07:23;25.80;99.90
52869;DHT22;39100;53.480;6.158;2022-07-24T10:09:52;25.80;99.90
52869;DHT22;39100;53.480;6.158;2022-07-24T10:12:22;25.80;99.90
52869;DHT22;39100;53.480;6.158;2022-07-24T10:14:50;25.90;99.90
52869;DHT22;39100;53.480;6.158;2022-07-24T10:17:17;25.90;99.90
52869;DHT22;39100;53.480;6.158;2022-07-24T10:19:44;26.20;99.90
52869;DHT22;39100;53.480;6.158;2022-07-24T10:22:22;26.40;99.90
52869;DHT22;39100;53.480;6.158;2022-07-24T10:25:04;26.20;99.90
52869;DHT22;39100;53.480;6.158;2022-07-24T10:27:35;25.90;99.90
52869;DHT22;39100;53.480;6.158;2022-07-24T10:30:04;25.60;99.90
52869;DHT22;39100;53.480;6.158;2022-07-24T10:32:32;25.60;99.90
52869;DHT22;39100;53.480;6.158;2022-07-24T10:40:42;25.70;99.90
52869;DHT22;39100;53.480;6.158;2022-07-24T10:43:14;25.40;99.90
52869;DHT22;39100;53.480;6.158;2022-07-24T10:53:25;25.10;99.90
52869;DHT22;39100;53.480;6.158;2022-07-24T10:55:51;25.20;99.90
52869;DHT22;39100;53.480;6.158;2022-07-24T10:58:17;25.60;99.90
52869;DHT22;39100;53.480;6.158;2022-07-24T11:03:21;26.30;99.90
52869;DHT22;39100;53.480;6.158;2022-07-24T11:06:07;26.40;99.90
52869;DHT22;39100;53.480;6.158;2022-07-24T11:11:16;26.30;99.90
52869;DHT22;39100;53.480;6.158;2022-07-24T11:13:44;25.90;99.90
52869;DHT22;39100;53.480;6.158;2022-07-24T11:21:05;25.70;99.90
52869;DHT22;39100;53.480;6.158;2022-07-24T11:23:31;25.60;99.90
52869;DHT22;39100;53.480;6.158;2022-07-24T11:29:16;25.90;99.90
52869;DHT22;39100;53.480;6.158;2022-07-24T11:31:43;26.50;99.90
52869;DHT22;39100;53.480;6.158;2022-07-24T11:34:09;26.50;99.90
52869;DHT22;39100;53.480;6.158;2022-07-24T11:36:36;26.80;99.90
52869;DHT22;39100;53.480;6.158;2022-07-24T11:39:03;27.20;99.90
52869;DHT22;39100;53.480;6.158;2022-07-24T11:41:42;27.40;99.90
52869;DHT22;39100;53.480;6.158;2022-07-24T11:44:08;27.20;99.90
52869;DHT22;39100;53.480;6.158;2022-07-24T11:46:35;27.10;99.90
52869;DHT22;39100;53.480;6.158;2022-07-24T11:49:05;26.90;99.90
52869;DHT22;39100;53.480;6.158;2022-07-24T11:51:32;26.60;99.90
52869;DHT22;39100;53.480;6.158;2022-07-24T11:54:05;26.50;99.90
52869;DHT22;39100;53.480;6.158;2022-07-24T11:56:31;26.90;99.90
52869;DHT22;39100;53.480;6.158;2022-07-24T11:58:57;27.60;99.90
52869;DHT22;39100;53.480;6.158;2022-07-24T12:01:24;27.70;99.90
52869;DHT22;39100;53.480;6.158;2022-07-24T12:03:56;27.90;99.90
52869;DHT22;39100;53.480;6.158;2022-07-24T12:06:22;28.50;99.90
52869;DHT22;39100;53.480;6.158;2022-07-24T12:08:48;29.00;99.90
52869;DHT22;39100;53.480;6.158;2022-07-24T12:11:21;29.60;99.90
52869;DHT22;39100;53.480;6.158;2022-07-24T12:13:48;29.50;99.90
52869;DHT22;39100;53.480;6.158;2022-07-24T12:16:24;29.30;99.90
52869;DHT22;39100;53.480;6.158;2022-07-24T12:18:50;29.20;99.90
52869;DHT22;39100;53.480;6.158;2022-07-24T12:21:16;29.40;99.90
52869;DHT22;39100;53.480;6.158;2022-07-24T12:23:45;29.40;99.90
52869;DHT22;39100;53.480;6.158;2022-07-24T12:26:11;29.60;99.90
52869;DHT22;39100;53.480;6.158;2022-07-24T12:28:37;29.30;99.90
52869;DHT22;39100;53.480;6.158;2022-07-24T12:31:07;29.00;99.90
52869;DHT22;39100;53.480;6.158;2022-07-24T12:33:36;28.80;99.90
52869;DHT22;39100;53.480;6.158;2022-07-24T12:38:35;28.60;99.90
52869;DHT22;39100;53.480;6.158;2022-07-24T12:41:09;28.60;99.90
52869;DHT22;39100;53.480;6.158;2022-07-24T12:43:50;28.50;99.90
52869;DHT22;39100;53.480;6.158;2022-07-24T12:46:18;28.70;99.90
52869;DHT22;39100;53.480;6.158;2022-07-24T12:54:32;29.80;99.90
52869;DHT22;39100;53.480;6.158;2022-07-24T12:57:07;30.30;99.90
52869;DHT22;39100;53.480;6.158;2022-07-24T12:59:35;30.70;99.90
52869;DHT22;39100;53.480;6.158;2022-07-24T13:02:10;30.80;99.90
52869;DHT22;39100;53.480;6.158;2022-07-24T13:07:13;31.30;99.90
52869;DHT22;39100;53.480;6.158;2022-07-24T13:09:40;31.30;99.90
52869;DHT22;39100;53.480;6.158;2022-07-24T13:12:06;31.60;99.90
52869;DHT22;39100;53.480;6.158;2022-07-24T13:14:32;31.20;99.90
52869;DHT22;39100;53.480;6.158;2022-07-24T13:17:06;31.20;99.90
52869;DHT22;39100;53.480;6.158;2022-07-24T13:19:38;31.10;99.90
52869;DHT22;39100;53.480;6.158;2022-07-24T13:22:04;31.10;99.90
52869;DHT22;39100;53.480;6.158;2022-07-24T13:24:30;30.90;99.90
52869;DHT22;39100;53.480;6.158;2022-07-24T13:26:58;30.80;99.90
52869;DHT22;39100;53.480;6.158;2022-07-24T13:29:24;30.60;99.90
52869;DHT22;39100;53.480;6.158;2022-07-24T13:31:50;30.50;99.90
52869;DHT22;39100;53.480;6.158;2022-07-24T13:34:15;30.40;99.90
52869;DHT22;39100;53.480;6.158;2022-07-24T13:36:41;30.20;99.90
52869;DHT22;39100;53.480;6.158;2022-07-24T13:39:07;30.30;99.90
52869;DHT22;39100;53.480;6.158;2022-07-24T13:41:33;30.30;99.90
52869;DHT22;39100;53.480;6.158;2022-07-24T13:43:59;30.30;99.90
52869;DHT22;39100;53.480;6.158;2022-07-24T13:46:25;30.30;99.90
52869;DHT22;39100;53.480;6.158;2022-07-24T13:48:51;30.30;99.90
52869;DHT22;39100;53.480;6.158;2022-07-24T13:51:18;30.20;99.90
52869;DHT22;39100;53.480;6.158;2022-07-24T13:53:44;30.30;99.90
52869;DHT22;39100;53.480;6.158;2022-07-24T13:56:11;30.40;99.90
52869;DHT22;39100;53.480;6.158;2022-07-24T13:58:36;30.30;99.90
52869;DHT22;39100;53.480;6.158;2022-07-24T14:01:04;30.20;99.90
52869;DHT22;39100;53.480;6.158;2022-07-24T14:03:30;30.10;99.90
52869;DHT22;39100;53.480;6.158;2022-07-24T14:05:56;30.10;99.90
52869;DHT22;39100;53.480;6.158;2022-07-24T14:08:22;30.40;99.90
52869;DHT22;39100;53.480;6.158;2022-07-24T14:10:48;30.30;99.90
52869;DHT22;39100;53.480;6.158;2022-07-24T14:13:13;30.30;99.90
52869;DHT22;39100;53.480;6.158;2022-07-24T14:15:39;30.30;99.90
52869;DHT22;39100;53.480;6.158;2022-07-24T14:18:05;30.10;99.90
52869;DHT22;39100;53.480;6.158;2022-07-24T14:20:30;30.20;99.90
52869;DHT22;39100;53.480;6.158;2022-07-24T14:22:56;30.10;99.90
52869;DHT22;39100;53.480;6.158;2022-07-24T14:25:21;30.10;99.90
52869;DHT22;39100;53.480;6.158;2022-07-24T14:27:47;30.10;99.90
52869;DHT22;39100;53.480;6.158;2022-07-24T14:30:13;30.00;99.90
52869;DHT22;39100;53.480;6.158;2022-07-24T14:32:39;30.00;99.90
52869;DHT22;39100;53.480;6.158;2022-07-24T14:35:06;30.00;99.90
52869;DHT22;39100;53.480;6.158;2022-07-24T14:37:34;30.00;99.90
52869;DHT22;39100;53.480;6.158;2022-07-24T14:40:00;30.00;99.90
52869;DHT22;39100;53.480;6.158;2022-07-24T14:42:25;30.00;99.90
52869;DHT22;39100;53.480;6.158;2022-07-24T14:44:51;29.90;99.90
52869;DHT22;39100;53.480;6.158;2022-07-24T14:47:16;29.60;99.90
52869;DHT22;39100;53.480;6.158;2022-07-24T14:49:42;29.50;99.90
52869;DHT22;39100;53.480;6.158;2022-07-24T14:52:08;29.30;99.90
52869;DHT22;39100;53.480;6.158;2022-07-24T14:54:34;29.20;99.90
52869;DHT22;39100;53.480;6.158;2022-07-24T14:56:59;29.10;99.90
52869;DHT22;39100;53.480;6.158;2022-07-24T14:59:26;29.10;99.90
52869;DHT22;39100;53.480;6.158;2022-07-24T15:01:52;29.10;99.90
52869;DHT22;39100;53.480;6.158;2022-07-24T15:04:18;29.00;99.90
52869;DHT22;39100;53.480;6.158;2022-07-24T15:06:44;29.00;99.90
52869;DHT22;39100;53.480;6.158;2022-07-24T15:09:09;29.10;99.90
52869;DHT22;39100;53.480;6.158;2022-07-24T15:11:35;29.10;99.90
52869;DHT22;39100;53.480;6.158;2022-07-24T15:14:03;29.10;99.90
52869;DHT22;39100;53.480;6.158;2022-07-24T15:16:29;29.00;99.90
52869;DHT22;39100;53.480;6.158;2022-07-24T15:18:54;29.00;99.90
52869;DHT22;39100;53.480;6.158;2022-07-24T15:21:20;29.00;99.90
52869;DHT22;39100;53.480;6.158;2022-07-24T15:23:45;28.80;99.90
52869;DHT22;39100;53.480;6.158;2022-07-24T15:26:11;28.80;99.90
52869;DHT22;39100;53.480;6.158;2022-07-24T15:28:37;28.90;99.90
52869;DHT22;39100;53.480;6.158;2022-07-24T15:31:02;28.80;99.90
52869;DHT22;39100;53.480;6.158;2022-07-24T15:33:28;28.70;99.90
52869;DHT22;39100;53.480;6.158;2022-07-24T15:35:53;28.70;99.90
52869;DHT22;39100;53.480;6.158;2022-07-24T15:38:19;28.60;99.90
52869;DHT22;39100;53.480;6.158;2022-07-24T15:40:45;28.50;99.90
52869;DHT22;39100;53.480;6.158;2022-07-24T15:43:10;28.50;99.90
52869;DHT22;39100;53.480;6.158;2022-07-24T15:45:37;28.40;99.90
52869;DHT22;39100;53.480;6.158;2022-07-24T15:48:03;28.40;99.90
52869;DHT22;39100;53.480;6.158;2022-07-24T15:50:29;28.30;99.90
52869;DHT22;39100;53.480;6.158;2022-07-24T15:52:54;28.20;99.90
52869;DHT22;39100;53.480;6.158;2022-07-24T15:55:20;28.10;99.90
52869;DHT22;39100;53.480;6.158;2022-07-24T15:57:46;28.10;99.90
52869;DHT22;39100;53.480;6.158;2022-07-24T16:00:12;28.00;99.90
52869;DHT22;39100;53.480;6.158;2022-07-24T16:02:38;28.00;99.90
52869;DHT22;39100;53.480;6.158;2022-07-24T16:05:04;28.00;99.90